sensor_id;sensor_type;location;lat;lon;timestamp;temperature;humidity
60848;DHT22;46681;47.696;9.140;2023-02-01T00:00:22;9.60;47.50
60848;DHT22;46681;47.696;9.140;2023-02-01T00:02:47;9.60;47.50
60848;DHT22;46681;47.696;9.140;2023-02-01T00:05:13;9.60;47.80
60848;DHT22;46681;47.696;9.140;2023-02-01T00:07:39;9.60;47.40
60848;DHT22;46681;47.696;9.140;2023-02-01T00:10:08;9.60;47.50
60848;DHT22;46681;47.696;9.140;2023-02-01T00:12:34;9.50;47.40
60848;DHT22;46681;47.696;9.140;2023-02-01T00:15:00;9.60;47.50
60848;DHT22;46681;47.696;9.140;2023-02-01T00:17:26;9.60;47.40
60848;DHT22;46681;47.696;9.140;2023-02-01T00:19:51;9.60;47.30
60848;DHT22;46681;47.696;9.140;2023-02-01T00:22:17;9.60;47.40
60848;DHT22;46681;47.696;9.140;2023-02-01T00:24:42;9.60;47.30
60848;DHT22;46681;47.696;9.140;2023-02-01T00:27:08;9.70;47.30
60848;DHT22;46681;47.696;9.140;2023-02-01T00:29:33;9.70;47.30
60848;DHT22;46681;47.696;9.140;2023-02-01T00:32:02;9.70;47.20
60848;DHT22;46681;47.696;9.140;2023-02-01T00:34:28;9.70;47.20
60848;DHT22;46681;47.696;9.140;2023-02-01T00:36:56;9.70;47.20
60848;DHT22;46681;47.696;9.140;2023-02-01T00:39:22;9.80;47.20
60848;DHT22;46681;47.696;9.140;2023-02-01T00:41:48;9.70;47.10
60848;DHT22;46681;47.696;9.140;2023-02-01T00:44:14;9.80;47.20
60848;DHT22;46681;47.696;9.140;2023-02-01T00:46:40;9.80;47.10
60848;DHT22;46681;47.696;9.140;2023-02-01T00:49:07;9.80;47.10
60848;DHT22;46681;47.696;9.140;2023-02-01T00:51:34;9.80;47.10
60848;DHT22;46681;47.696;9.140;2023-02-01T00:54:00;9.70;47.00
60848;DHT22;46681;47.696;9.140;2023-02-01T00:56:26;9.80;47.10
60848;DHT22;46681;47.696;9.140;2023-02-01T00:58:51;9.80;47.10
60848;DHT22;46681;47.696;9.140;2023-02-01T01:01:20;9.80;47.10
60848;DHT22;46681;47.696;9.140;2023-02-01T01:03:50;9.80;47.10
60848;DHT22;46681;47.696;9.140;2023-02-01T01:06:22;9.80;47.10
60848;DHT22;46681;47.696;9.140;2023-02-01T01:08:48;9.80;47.20
60848;DHT22;46681;47.696;9.140;2023-02-01T01:11:18;9.70;47.10
60848;DHT22;46681;47.696;9.140;2023-02-01T01:13:47;9.70;47.10
60848;DHT22;46681;47.696;9.140;2023-02-01T01:16:12;9.70;47.00
60848;DHT22;46681;47.696;9.140;2023-02-01T01:18:38;9.70;47.10
60848;DHT22;46681;47.696;9.140;2023-02-01T01:21:06;9.70;47.10
60848;DHT22;46681;47.696;9.140;2023-02-01T01:23:35;9.70;47.40
60848;DHT22;46681;47.696;9.140;2023-02-01T01:26:05;9.70;47.00
60848;DHT22;46681;47.696;9.140;2023-02-01T01:28:31;9.70;47.00
60848;DHT22;46681;47.696;9.140;2023-02-01T01:30:59;9.60;47.10
60848;DHT22;46681;47.696;9.140;2023-02-01T01:33:25;9.60;47.10
60848;DHT22;46681;47.696;9.140;2023-02-01T01:35:51;9.60;47.00
60848;DHT22;46681;47.696;9.140;2023-02-01T01:38:17;9.60;47.10
60848;DHT22;46681;47.696;9.140;2023-02-01T01:40:46;9.60;47.10
60848;DHT22;46681;47.696;9.140;2023-02-01T01:43:16;9.60;47.10
60848;DHT22;46681;47.696;9.140;2023-02-01T01:45:42;9.60;47.00
60848;DHT22;46681;47.696;9.140;2023-02-01T01:48:23;9.60;47.20
60848;DHT22;46681;47.696;9.140;2023-02-01T01:51:03;9.60;47.10
60848;DHT22;46681;47.696;9.140;2023-02-01T01:53:38;9.60;47.00
60848;DHT22;46681;47.696;9.140;2023-02-01T01:56:14;9.70;47.10
60848;DHT22;46681;47.696;9.140;2023-02-01T01:58:42;9.70;47.00
60848;DHT22;46681;47.696;9.140;2023-02-01T02:01:10;9.70;47.10
60848;DHT22;46681;47.696;9.140;2023-02-01T02:03:43;9.70;47.10
60848;DHT22;46681;47.696;9.140;2023-02-01T02:08:51;9.70;47.00
60848;DHT22;46681;47.696;9.140;2023-02-01T02:11:17;9.60;47.10
60848;DHT22;46681;47.696;9.140;2023-02-01T02:13:50;9.70;47.10
60848;DHT22;46681;47.696;9.140;2023-02-01T02:30:42;9.60;47.10
60848;DHT22;46681;47.696;9.140;2023-02-01T02:34:18;9.60;47.20
60848;DHT22;46681;47.696;9.140;2023-02-01T02:36:31;9.60;47.20
60848;DHT22;46681;47.696;9.140;2023-02-01T02:41:45;9.60;47.10
60848;DHT22;46681;47.696;9.140;2023-02-01T02:44:27;9.60;47.00
60848;DHT22;46681;47.696;9.140;2023-02-01T02:47:03;9.60;47.20
60848;DHT22;46681;47.696;9.140;2023-02-01T02:49:39;9.60;47.20
60848;DHT22;46681;47.696;9.140;2023-02-01T02:52:19;9.60;47.20
60848;DHT22;46681;47.696;9.140;2023-02-01T02:54:47;9.60;47.20
60848;DHT22;46681;47.696;9.140;2023-02-01T02:57:19;9.60;47.20
60848;DHT22;46681;47.696;9.140;2023-02-01T02:59:47;9.60;47.30
60848;DHT22;46681;47.696;9.140;2023-02-01T03:02:14;9.60;47.30
60848;DHT22;46681;47.696;9.140;2023-02-01T03:04:41;9.60;47.20
60848;DHT22;46681;47.696;9.140;2023-02-01T03:07:46;9.60;47.30
60848;DHT22;46681;47.696;9.140;2023-02-01T03:10:03;9.50;47.20
60848;DHT22;46681;47.696;9.140;2023-02-01T03:12:37;9.60;47.20
60848;DHT22;46681;47.696;9.140;2023-02-01T03:15:11;9.60;47.20
60848;DHT22;46681;47.696;9.140;2023-02-01T03:17:39;9.60;47.10
60848;DHT22;46681;47.696;9.140;2023-02-01T03:20:08;9.60;47.10
60848;DHT22;46681;47.696;9.140;2023-02-01T03:22:36;9.60;47.10
60848;DHT22;46681;47.696;9.140;2023-02-01T03:25:10;9.60;47.10
60848;DHT22;46681;47.696;9.140;2023-02-01T03:27:43;9.60;47.20
60848;DHT22;46681;47.696;9.140;2023-02-01T03:30:15;9.60;47.10
60848;DHT22;46681;47.696;9.140;2023-02-01T03:32:44;9.60;47.10
60848;DHT22;46681;47.696;9.140;2023-02-01T03:35:13;9.60;47.20
60848;DHT22;46681;47.696;9.140;2023-02-01T03:37:38;9.60;47.20
60848;DHT22;46681;47.696;9.140;2023-02-01T03:40:07;9.60;47.20
60848;DHT22;46681;47.696;9.140;2023-02-01T03:42:38;9.50;47.20
60848;DHT22;46681;47.696;9.140;2023-02-01T03:45:07;9.50;47.30
60848;DHT22;46681;47.696;9.140;2023-02-01T03:47:40;9.50;47.20
60848;DHT22;46681;47.696;9.140;2023-02-01T03:50:19;9.50;47.20
60848;DHT22;46681;47.696;9.140;2023-02-01T03:52:51;9.50;47.10
60848;DHT22;46681;47.696;9.140;2023-02-01T03:55:25;9.50;47.10
60848;DHT22;46681;47.696;9.140;2023-02-01T03:58:06;9.50;47.10
60848;DHT22;46681;47.696;9.140;2023-02-01T04:00:33;9.50;47.10
60848;DHT22;46681;47.696;9.140;2023-02-01T04:03:00;9.50;47.10
60848;DHT22;46681;47.696;9.140;2023-02-01T04:05:27;9.50;47.10
60848;DHT22;46681;47.696;9.140;2023-02-01T04:07:53;9.50;47.10
60848;DHT22;46681;47.696;9.140;2023-02-01T04:10:19;9.50;47.10
60848;DHT22;46681;47.696;9.140;2023-02-01T04:12:46;9.60;47.10
60848;DHT22;46681;47.696;9.140;2023-02-01T04:15:12;9.60;47.10
60848;DHT22;46681;47.696;9.140;2023-02-01T04:17:41;9.60;47.00
60848;DHT22;46681;47.696;9.140;2023-02-01T04:20:12;9.60;47.00
60848;DHT22;46681;47.696;9.140;2023-02-01T04:22:41;9.60;47.00
60848;DHT22;46681;47.696;9.140;2023-02-01T04:25:07;9.70;47.00
60848;DHT22;46681;47.696;9.140;2023-02-01T04:27:33;9.70;47.00
60848;DHT22;46681;47.696;9.140;2023-02-01T04:29:59;9.70;47.00
60848;DHT22;46681;47.696;9.140;2023-02-01T04:32:24;9.70;46.90
60848;DHT22;46681;47.696;9.140;2023-02-01T04:34:50;9.70;46.90
60848;DHT22;46681;47.696;9.140;2023-02-01T04:37:15;9.70;46.90
60848;DHT22;46681;47.696;9.140;2023-02-01T04:39:51;9.70;46.90
60848;DHT22;46681;47.696;9.140;2023-02-01T04:42:18;9.80;46.90
60848;DHT22;46681;47.696;9.140;2023-02-01T04:44:44;9.80;46.90
60848;DHT22;46681;47.696;9.140;2023-02-01T04:47:13;9.80;47.00
60848;DHT22;46681;47.696;9.140;2023-02-01T04:49:39;9.80;46.90
60848;DHT22;46681;47.696;9.140;2023-02-01T04:52:04;9.80;46.90
60848;DHT22;46681;47.696;9.140;2023-02-01T04:54:32;9.80;46.90
60848;DHT22;46681;47.696;9.140;2023-02-01T04:56:58;9.80;46.90
60848;DHT22;46681;47.696;9.140;2023-02-01T04:59:24;9.80;46.90
60848;DHT22;46681;47.696;9.140;2023-02-01T05:01:49;9.80;46.90
60848;DHT22;46681;47.696;9.140;2023-02-01T05:04:20;9.80;47.00
60848;DHT22;46681;47.696;9.140;2023-02-01T05:06:47;9.80;46.90
60848;DHT22;46681;47.696;9.140;2023-02-01T05:09:21;9.80;46.90
60848;DHT22;46681;47.696;9.140;2023-02-01T05:11:47;9.80;46.90
60848;DHT22;46681;47.696;9.140;2023-02-01T05:14:13;9.80;47.00
60848;DHT22;46681;47.696;9.140;2023-02-01T05:16:40;9.80;47.00
60848;DHT22;46681;47.696;9.140;2023-02-01T05:19:06;9.80;47.00
60848;DHT22;46681;47.696;9.140;2023-02-01T05:21:35;9.80;46.90
60848;DHT22;46681;47.696;9.140;2023-02-01T05:24:01;9.80;46.90
60848;DHT22;46681;47.696;9.140;2023-02-01T05:26:27;9.80;46.90
60848;DHT22;46681;47.696;9.140;2023-02-01T05:28:53;9.90;46.80
60848;DHT22;46681;47.696;9.140;2023-02-01T05:31:23;9.90;46.80
60848;DHT22;46681;47.696;9.140;2023-02-01T05:33:51;10.00;46.90
60848;DHT22;46681;47.696;9.140;2023-02-01T05:36:18;10.00;46.70
60848;DHT22;46681;47.696;9.140;2023-02-01T05:38:43;10.00;46.70
60848;DHT22;46681;47.696;9.140;2023-02-01T05:41:09;10.00;46.60
60848;DHT22;46681;47.696;9.140;2023-02-01T05:43:37;10.20;47.30
60848;DHT22;46681;47.696;9.140;2023-02-01T05:46:03;10.20;46.70
60848;DHT22;46681;47.696;9.140;2023-02-01T05:48:36;10.20;46.60
60848;DHT22;46681;47.696;9.140;2023-02-01T05:51:10;10.30;46.50
60848;DHT22;46681;47.696;9.140;2023-02-01T05:53:36;10.30;46.40
60848;DHT22;46681;47.696;9.140;2023-02-01T05:56:07;10.30;46.40
60848;DHT22;46681;47.696;9.140;2023-02-01T05:58:37;10.30;46.40
60848;DHT22;46681;47.696;9.140;2023-02-01T06:01:11;10.30;46.20
60848;DHT22;46681;47.696;9.140;2023-02-01T06:03:37;10.20;46.40
60848;DHT22;46681;47.696;9.140;2023-02-01T06:06:05;10.20;46.50
60848;DHT22;46681;47.696;9.140;2023-02-01T06:08:31;10.20;46.50
60848;DHT22;46681;47.696;9.140;2023-02-01T06:11:06;10.10;46.60
60848;DHT22;46681;47.696;9.140;2023-02-01T06:13:34;10.10;46.60
60848;DHT22;46681;47.696;9.140;2023-02-01T06:16:02;10.10;46.60
60848;DHT22;46681;47.696;9.140;2023-02-01T06:18:30;10.00;46.60
60848;DHT22;46681;47.696;9.140;2023-02-01T06:21:10;10.00;46.70
60848;DHT22;46681;47.696;9.140;2023-02-01T06:23:42;10.00;46.70
60848;DHT22;46681;47.696;9.140;2023-02-01T06:26:09;9.90;47.20
60848;DHT22;46681;47.696;9.140;2023-02-01T06:28:39;9.90;46.80
60848;DHT22;46681;47.696;9.140;2023-02-01T06:31:06;9.80;46.80
60848;DHT22;46681;47.696;9.140;2023-02-01T06:33:33;9.80;46.90
60848;DHT22;46681;47.696;9.140;2023-02-01T06:35:59;9.80;46.90
60848;DHT22;46681;47.696;9.140;2023-02-01T06:38:30;9.80;47.10
60848;DHT22;46681;47.696;9.140;2023-02-01T06:41:02;9.70;47.00
60848;DHT22;46681;47.696;9.140;2023-02-01T06:43:30;9.70;47.20
60848;DHT22;46681;47.696;9.140;2023-02-01T06:46:04;9.70;47.10
60848;DHT22;46681;47.696;9.140;2023-02-01T06:48:33;9.70;47.20
60848;DHT22;46681;47.696;9.140;2023-02-01T06:51:03;9.60;47.20
60848;DHT22;46681;47.696;9.140;2023-02-01T06:53:40;9.60;47.20
60848;DHT22;46681;47.696;9.140;2023-02-01T06:56:13;9.60;47.30
60848;DHT22;46681;47.696;9.140;2023-02-01T06:58:38;9.60;47.60
60848;DHT22;46681;47.696;9.140;2023-02-01T07:01:12;9.60;47.50
60848;DHT22;46681;47.696;9.140;2023-02-01T07:03:38;9.60;47.90
60848;DHT22;46681;47.696;9.140;2023-02-01T07:06:10;9.60;47.50
60848;DHT22;46681;47.696;9.140;2023-02-01T07:08:37;9.60;47.50
60848;DHT22;46681;47.696;9.140;2023-02-01T07:11:10;9.60;47.40
60848;DHT22;46681;47.696;9.140;2023-02-01T07:13:42;9.50;47.40
60848;DHT22;46681;47.696;9.140;2023-02-01T07:16:18;9.60;47.90
60848;DHT22;46681;47.696;9.140;2023-02-01T07:18:49;9.60;47.80
60848;DHT22;46681;47.696;9.140;2023-02-01T07:21:19;9.60;47.70
60848;DHT22;46681;47.696;9.140;2023-02-01T07:23:47;9.60;47.60
60848;DHT22;46681;47.696;9.140;2023-02-01T07:26:16;9.60;47.60
60848;DHT22;46681;47.696;9.140;2023-02-01T07:28:45;9.60;47.60
60848;DHT22;46681;47.696;9.140;2023-02-01T07:31:20;9.50;47.60
60848;DHT22;46681;47.696;9.140;2023-02-01T07:33:48;9.50;47.60
60848;DHT22;46681;47.696;9.140;2023-02-01T07:36:16;9.60;47.60
60848;DHT22;46681;47.696;9.140;2023-02-01T07:38:46;9.60;47.60
60848;DHT22;46681;47.696;9.140;2023-02-01T07:41:11;9.50;47.50
60848;DHT22;46681;47.696;9.140;2023-02-01T07:43:37;9.60;47.60
60848;DHT22;46681;47.696;9.140;2023-02-01T07:46:09;9.60;47.60
60848;DHT22;46681;47.696;9.140;2023-02-01T07:48:39;9.60;47.60
60848;DHT22;46681;47.696;9.140;2023-02-01T07:51:16;9.60;47.50
60848;DHT22;46681;47.696;9.140;2023-02-01T07:53:45;9.60;47.50
60848;DHT22;46681;47.696;9.140;2023-02-01T07:56:20;9.60;47.90
60848;DHT22;46681;47.696;9.140;2023-02-01T07:58:54;9.60;47.40
60848;DHT22;46681;47.696;9.140;2023-02-01T08:01:24;9.60;48.40
60848;DHT22;46681;47.696;9.140;2023-02-01T08:04:00;9.50;47.60
60848;DHT22;46681;47.696;9.140;2023-02-01T08:06:27;9.50;47.70
60848;DHT22;46681;47.696;9.140;2023-02-01T08:09:01;9.50;47.70
60848;DHT22;46681;47.696;9.140;2023-02-01T08:11:28;9.40;47.80
60848;DHT22;46681;47.696;9.140;2023-02-01T08:13:53;9.40;47.90
60848;DHT22;46681;47.696;9.140;2023-02-01T08:16:22;9.40;47.90
60848;DHT22;46681;47.696;9.140;2023-02-01T08:18:49;9.40;47.90
60848;DHT22;46681;47.696;9.140;2023-02-01T08:21:27;9.40;47.90
60848;DHT22;46681;47.696;9.140;2023-02-01T08:23:57;9.40;47.90
60848;DHT22;46681;47.696;9.140;2023-02-01T08:26:25;9.40;48.10
60848;DHT22;46681;47.696;9.140;2023-02-01T08:28:56;9.40;48.10
60848;DHT22;46681;47.696;9.140;2023-02-01T08:31:24;9.40;48.20
60848;DHT22;46681;47.696;9.140;2023-02-01T08:34:00;9.30;48.30
60848;DHT22;46681;47.696;9.140;2023-02-01T08:36:30;9.30;48.40
60848;DHT22;46681;47.696;9.140;2023-02-01T08:38:59;9.30;48.40
60848;DHT22;46681;47.696;9.140;2023-02-01T08:41:28;9.30;48.50
60848;DHT22;46681;47.696;9.140;2023-02-01T08:43:59;9.30;48.50
60848;DHT22;46681;47.696;9.140;2023-02-01T08:46:26;9.30;48.50
60848;DHT22;46681;47.696;9.140;2023-02-01T08:48:51;9.30;48.60
60848;DHT22;46681;47.696;9.140;2023-02-01T08:51:22;9.30;48.50
60848;DHT22;46681;47.696;9.140;2023-02-01T08:53:49;9.30;48.60
60848;DHT22;46681;47.696;9.140;2023-02-01T08:56:16;9.50;49.50
60848;DHT22;46681;47.696;9.140;2023-02-01T08:58:47;9.50;48.90
60848;DHT22;46681;47.696;9.140;2023-02-01T09:01:15;9.60;48.70
60848;DHT22;46681;47.696;9.140;2023-02-01T09:03:48;9.60;48.70
60848;DHT22;46681;47.696;9.140;2023-02-01T09:06:15;9.60;48.60
60848;DHT22;46681;47.696;9.140;2023-02-01T09:08:49;9.60;48.80
60848;DHT22;46681;47.696;9.140;2023-02-01T09:11:23;9.60;48.80
60848;DHT22;46681;47.696;9.140;2023-02-01T09:13:50;9.50;48.70
60848;DHT22;46681;47.696;9.140;2023-02-01T09:16:17;9.50;48.70
60848;DHT22;46681;47.696;9.140;2023-02-01T09:18:43;9.50;48.90
60848;DHT22;46681;47.696;9.140;2023-02-01T09:21:10;9.50;48.70
60848;DHT22;46681;47.696;9.140;2023-02-01T09:23:41;9.60;48.80
60848;DHT22;46681;47.696;9.140;2023-02-01T09:26:18;9.50;48.70
60848;DHT22;46681;47.696;9.140;2023-02-01T09:28:45;9.50;48.90
60848;DHT22;46681;47.696;9.140;2023-02-01T09:31:13;9.50;48.90
60848;DHT22;46681;47.696;9.140;2023-02-01T09:33:40;9.50;48.80
60848;DHT22;46681;47.696;9.140;2023-02-01T09:36:08;9.50;49.00
60848;DHT22;46681;47.696;9.140;2023-02-01T09:38:39;9.40;49.10
60848;DHT22;46681;47.696;9.140;2023-02-01T09:46:37;9.50;49.00
60848;DHT22;46681;47.696;9.140;2023-02-01T09:49:24;9.50;48.90
60848;DHT22;46681;47.696;9.140;2023-02-01T09:51:56;9.50;49.00
60848;DHT22;46681;47.696;9.140;2023-02-01T09:54:51;9.60;49.00
60848;DHT22;46681;47.696;9.140;2023-02-01T10:00:34;9.70;48.90
60848;DHT22;46681;47.696;9.140;2023-02-01T10:03:08;9.70;49.00
60848;DHT22;46681;47.696;9.140;2023-02-01T10:17:17;9.80;48.90
60848;DHT22;46681;47.696;9.140;2023-02-01T10:22:46;9.90;48.70
60848;DHT22;46681;47.696;9.140;2023-02-01T10:25:23;9.90;48.70
60848;DHT22;46681;47.696;9.140;2023-02-01T10:27:54;10.00;48.70
60848;DHT22;46681;47.696;9.140;2023-02-01T10:30:28;10.00;48.50
60848;DHT22;46681;47.696;9.140;2023-02-01T10:38:40;10.20;48.30
60848;DHT22;46681;47.696;9.140;2023-02-01T10:41:29;10.30;48.00
60848;DHT22;46681;47.696;9.140;2023-02-01T10:44:03;10.50;48.00
60848;DHT22;46681;47.696;9.140;2023-02-01T10:46:38;10.60;47.80
60848;DHT22;46681;47.696;9.140;2023-02-01T10:52:10;10.70;47.60
60848;DHT22;46681;47.696;9.140;2023-02-01T10:54:43;10.80;47.40
60848;DHT22;46681;47.696;9.140;2023-02-01T10:57:11;11.00;47.40
60848;DHT22;46681;47.696;9.140;2023-02-01T10:59:46;11.20;47.60
60848;DHT22;46681;47.696;9.140;2023-02-01T11:02:28;11.30;46.80
60848;DHT22;46681;47.696;9.140;2023-02-01T11:05:22;11.30;46.90
60848;DHT22;46681;47.696;9.140;2023-02-01T11:07:57;11.40;46.80
60848;DHT22;46681;47.696;9.140;2023-02-01T11:10:42;11.60;46.90
60848;DHT22;46681;47.696;9.140;2023-02-01T11:13:16;11.90;46.50
60848;DHT22;46681;47.696;9.140;2023-02-01T11:15:49;11.90;46.40
60848;DHT22;46681;47.696;9.140;2023-02-01T11:18:27;11.90;46.30
60848;DHT22;46681;47.696;9.140;2023-02-01T11:21:01;12.20;46.60
60848;DHT22;46681;47.696;9.140;2023-02-01T11:23:39;12.20;46.10
60848;DHT22;46681;47.696;9.140;2023-02-01T11:26:35;12.40;46.20
60848;DHT22;46681;47.696;9.140;2023-02-01T11:30:04;12.40;45.70
60848;DHT22;46681;47.696;9.140;2023-02-01T11:32:26;12.60;46.20
60848;DHT22;46681;47.696;9.140;2023-02-01T11:35:01;13.00;46.00
60848;DHT22;46681;47.696;9.140;2023-02-01T11:37:34;13.30;45.10
60848;DHT22;46681;47.696;9.140;2023-02-01T11:40:27;13.40;45.10
60848;DHT22;46681;47.696;9.140;2023-02-01T11:48:41;13.70;43.90
60848;DHT22;46681;47.696;9.140;2023-02-01T11:51:47;13.40;43.70
60848;DHT22;46681;47.696;9.140;2023-02-01T12:14:55;12.20;46.10
60848;DHT22;46681;47.696;9.140;2023-02-01T12:17:49;12.10;46.10
60848;DHT22;46681;47.696;9.140;2023-02-01T12:20:45;12.00;46.30
60848;DHT22;46681;47.696;9.140;2023-02-01T12:26:18;11.80;46.40
60848;DHT22;46681;47.696;9.140;2023-02-01T12:40:02;11.40;46.90
60848;DHT22;46681;47.696;9.140;2023-02-01T12:42:43;11.40;46.90
60848;DHT22;46681;47.696;9.140;2023-02-01T12:45:46;11.40;47.00
60848;DHT22;46681;47.696;9.140;2023-02-01T12:48:39;11.30;47.00
60848;DHT22;46681;47.696;9.140;2023-02-01T12:51:26;11.20;46.80
60848;DHT22;46681;47.696;9.140;2023-02-01T12:54:33;11.10;47.00
60848;DHT22;46681;47.696;9.140;2023-02-01T12:57:12;11.00;47.00
60848;DHT22;46681;47.696;9.140;2023-02-01T13:09:09;10.80;47.80
60848;DHT22;46681;47.696;9.140;2023-02-01T13:11:45;10.80;47.90
60848;DHT22;46681;47.696;9.140;2023-02-01T13:17:16;10.70;48.00
60848;DHT22;46681;47.696;9.140;2023-02-01T13:22:36;10.60;47.90
60848;DHT22;46681;47.696;9.140;2023-02-01T13:27:57;10.40;47.90
60848;DHT22;46681;47.696;9.140;2023-02-01T13:30:38;10.30;47.80
60848;DHT22;46681;47.696;9.140;2023-02-01T13:44:38;10.40;47.50
60848;DHT22;46681;47.696;9.140;2023-02-01T13:47:26;10.40;47.20
60848;DHT22;46681;47.696;9.140;2023-02-01T13:52:43;10.70;46.90
60848;DHT22;46681;47.696;9.140;2023-02-01T13:55:29;10.70;46.70
60848;DHT22;46681;47.696;9.140;2023-02-01T14:11:46;10.50;46.80
60848;DHT22;46681;47.696;9.140;2023-02-01T14:19:36;10.50;46.90
60848;DHT22;46681;47.696;9.140;2023-02-01T14:22:33;10.50;46.90
60848;DHT22;46681;47.696;9.140;2023-02-01T14:25:14;10.40;46.70
60848;DHT22;46681;47.696;9.140;2023-02-01T14:27:46;10.40;47.00
60848;DHT22;46681;47.696;9.140;2023-02-01T14:30:16;10.30;47.00
60848;DHT22;46681;47.696;9.140;2023-02-01T14:32:42;10.20;46.90
60848;DHT22;46681;47.696;9.140;2023-02-01T14:35:27;10.20;47.00
60848;DHT22;46681;47.696;9.140;2023-02-01T14:37:58;10.20;47.00
60848;DHT22;46681;47.696;9.140;2023-02-01T14:40:30;10.10;47.50
60848;DHT22;46681;47.696;9.140;2023-02-01T14:42:59;10.20;47.70
60848;DHT22;46681;47.696;9.140;2023-02-01T14:50:44;10.10;47.00
60848;DHT22;46681;47.696;9.140;2023-02-01T14:53:27;10.10;47.00
60848;DHT22;46681;47.696;9.140;2023-02-01T14:56:09;10.00;46.90
60848;DHT22;46681;47.696;9.140;2023-02-01T14:58:59;10.10;46.90
60848;DHT22;46681;47.696;9.140;2023-02-01T15:01:37;10.10;46.80
60848;DHT22;46681;47.696;9.140;2023-02-01T15:04:27;10.10;46.80
60848;DHT22;46681;47.696;9.140;2023-02-01T15:07:36;10.10;46.60
60848;DHT22;46681;47.696;9.140;2023-02-01T15:10:26;10.00;46.50
60848;DHT22;46681;47.696;9.140;2023-02-01T15:13:31;10.00;46.50
60848;DHT22;46681;47.696;9.140;2023-02-01T15:16:20;10.00;46.60
60848;DHT22;46681;47.696;9.140;2023-02-01T15:19:15;9.90;46.60
60848;DHT22;46681;47.696;9.140;2023-02-01T15:21:54;9.90;46.50
60848;DHT22;46681;47.696;9.140;2023-02-01T15:24:32;9.90;46.50
60848;DHT22;46681;47.696;9.140;2023-02-01T15:27:05;9.90;46.70
60848;DHT22;46681;47.696;9.140;2023-02-01T15:29:38;9.90;46.60
60848;DHT22;46681;47.696;9.140;2023-02-01T15:32:15;9.80;46.60
60848;DHT22;46681;47.696;9.140;2023-02-01T15:34:53;9.80;46.60
60848;DHT22;46681;47.696;9.140;2023-02-01T15:37:26;9.80;46.80
60848;DHT22;46681;47.696;9.140;2023-02-01T15:42:59;9.80;46.80
60848;DHT22;46681;47.696;9.140;2023-02-01T15:45:44;9.80;46.80
60848;DHT22;46681;47.696;9.140;2023-02-01T15:48:23;9.80;46.90
60848;DHT22;46681;47.696;9.140;2023-02-01T15:51:24;9.70;46.80
60848;DHT22;46681;47.696;9.140;2023-02-01T15:54:40;9.70;46.80
60848;DHT22;46681;47.696;9.140;2023-02-01T15:57:27;9.70;46.90
60848;DHT22;46681;47.696;9.140;2023-02-01T16:03:42;9.60;46.90
60848;DHT22;46681;47.696;9.140;2023-02-01T16:09:55;9.70;46.80
60848;DHT22;46681;47.696;9.140;2023-02-01T16:15:17;9.70;46.80
60848;DHT22;46681;47.696;9.140;2023-02-01T16:17:43;9.70;46.70
60848;DHT22;46681;47.696;9.140;2023-02-01T16:20:15;9.70;46.80
60848;DHT22;46681;47.696;9.140;2023-02-01T16:22:41;9.70;46.80
60848;DHT22;46681;47.696;9.140;2023-02-01T16:25:08;9.70;46.70
60848;DHT22;46681;47.696;9.140;2023-02-01T16:27:39;9.60;46.70
60848;DHT22;46681;47.696;9.140;2023-02-01T16:30:20;9.70;46.50
60848;DHT22;46681;47.696;9.140;2023-02-01T16:32:54;9.70;46.70
60848;DHT22;46681;47.696;9.140;2023-02-01T16:38:34;9.60;46.50
60848;DHT22;46681;47.696;9.140;2023-02-01T16:41:00;9.60;46.50
60848;DHT22;46681;47.696;9.140;2023-02-01T16:43:34;9.60;46.50
60848;DHT22;46681;47.696;9.140;2023-02-01T16:46:19;9.60;46.40
60848;DHT22;46681;47.696;9.140;2023-02-01T16:48:54;9.60;46.40
60848;DHT22;46681;47.696;9.140;2023-02-01T16:51:37;9.60;46.40
60848;DHT22;46681;47.696;9.140;2023-02-01T16:54:15;9.60;46.40
60848;DHT22;46681;47.696;9.140;2023-02-01T16:56:48;9.60;46.50
60848;DHT22;46681;47.696;9.140;2023-02-01T16:59:15;9.60;46.40
60848;DHT22;46681;47.696;9.140;2023-02-01T17:02:18;9.60;46.30
60848;DHT22;46681;47.696;9.140;2023-02-01T17:04:44;9.60;46.30
60848;DHT22;46681;47.696;9.140;2023-02-01T17:07:18;9.60;46.50
60848;DHT22;46681;47.696;9.140;2023-02-01T17:10:01;9.60;46.50
60848;DHT22;46681;47.696;9.140;2023-02-01T17:12:42;9.60;46.40
60848;DHT22;46681;47.696;9.140;2023-02-01T17:15:12;9.60;46.90
60848;DHT22;46681;47.696;9.140;2023-02-01T17:17:46;9.60;46.50
60848;DHT22;46681;47.696;9.140;2023-02-01T17:20:22;9.60;46.40
60848;DHT22;46681;47.696;9.140;2023-02-01T17:22:58;9.60;46.30
60848;DHT22;46681;47.696;9.140;2023-02-01T17:25:31;9.60;46.40
60848;DHT22;46681;47.696;9.140;2023-02-01T17:30:47;9.50;46.30
60848;DHT22;46681;47.696;9.140;2023-02-01T17:33:29;9.50;46.50
60848;DHT22;46681;47.696;9.140;2023-02-01T17:38:55;9.30;47.40
60848;DHT22;46681;47.696;9.140;2023-02-01T17:41:21;9.30;46.80
60848;DHT22;46681;47.696;9.140;2023-02-01T17:43:51;9.40;46.50
60848;DHT22;46681;47.696;9.140;2023-02-01T17:46:19;9.40;46.80
60848;DHT22;46681;47.696;9.140;2023-02-01T17:48:45;9.40;46.50
60848;DHT22;46681;47.696;9.140;2023-02-01T17:51:20;9.40;46.50
60848;DHT22;46681;47.696;9.140;2023-02-01T17:54:11;9.40;46.50
60848;DHT22;46681;47.696;9.140;2023-02-01T17:56:37;9.40;46.30
60848;DHT22;46681;47.696;9.140;2023-02-01T17:59:23;9.40;46.40
60848;DHT22;46681;47.696;9.140;2023-02-01T18:01:54;9.40;46.20
60848;DHT22;46681;47.696;9.140;2023-02-01T18:04:30;9.40;46.30
60848;DHT22;46681;47.696;9.140;2023-02-01T18:07:03;9.40;46.20
60848;DHT22;46681;47.696;9.140;2023-02-01T18:09:34;9.40;46.20
60848;DHT22;46681;47.696;9.140;2023-02-01T18:12:09;9.40;46.20
60848;DHT22;46681;47.696;9.140;2023-02-01T18:14:42;9.40;46.10
60848;DHT22;46681;47.696;9.140;2023-02-01T18:17:08;9.40;46.10
60848;DHT22;46681;47.696;9.140;2023-02-01T18:19:33;9.40;46.10
60848;DHT22;46681;47.696;9.140;2023-02-01T18:22:01;9.40;46.10
60848;DHT22;46681;47.696;9.140;2023-02-01T18:24:34;9.40;46.10
60848;DHT22;46681;47.696;9.140;2023-02-01T18:27:00;9.40;46.10
60848;DHT22;46681;47.696;9.140;2023-02-01T18:29:26;9.40;46.10
60848;DHT22;46681;47.696;9.140;2023-02-01T18:31:51;9.40;46.00
60848;DHT22;46681;47.696;9.140;2023-02-01T18:34:20;9.40;46.00
60848;DHT22;46681;47.696;9.140;2023-02-01T18:36:46;9.40;45.90
60848;DHT22;46681;47.696;9.140;2023-02-01T18:39:12;9.40;45.80
60848;DHT22;46681;47.696;9.140;2023-02-01T18:41:43;9.40;45.90
60848;DHT22;46681;47.696;9.140;2023-02-01T18:44:16;9.40;45.90
60848;DHT22;46681;47.696;9.140;2023-02-01T18:46:43;9.40;46.00
60848;DHT22;46681;47.696;9.140;2023-02-01T18:49:14;9.40;46.00
60848;DHT22;46681;47.696;9.140;2023-02-01T18:51:39;9.40;45.90
60848;DHT22;46681;47.696;9.140;2023-02-01T18:54:11;9.40;45.80
60848;DHT22;46681;47.696;9.140;2023-02-01T18:56:38;9.40;45.90
60848;DHT22;46681;47.696;9.140;2023-02-01T18:59:05;9.40;45.80
60848;DHT22;46681;47.696;9.140;2023-02-01T19:01:31;9.50;45.90
60848;DHT22;46681;47.696;9.140;2023-02-01T19:03:56;9.50;45.80
60848;DHT22;46681;47.696;9.140;2023-02-01T19:06:29;9.50;45.80